Time;durP1;ratioP1;P1;durP2;ratioP2;P2;SDS_P1;SDS_P2;PMS_P1;PMS_P2;Temp;Humidity;BMP_temperature;BMP_pressure;BME280_temperature;BME280_humidity;BME280_pressure;Samples;Min_cycle;Max_cycle;Signal;HPM_P1;HPM_P2
2023/01/20 00:00:36;;;;;;;;;;;;;;;-1.65;56.50;91793.25;2071529;69;20133;-73
2023/01/20 00:03:01;;;;;;;;;;;;;;;-1.61;56.53;91799.09;2071458;69;20060;-74
2023/01/20 00:05:27;;;;;;;;;;;;;;;-1.61;56.32;91793.59;2071454;69;20063;-73
2023/01/20 00:07:52;;;;;;;;;;;;;;;-1.55;56.35;91798.94;2071429;69;20148;-73
2023/01/20 00:10:18;;;;;;;;;;;;;;;-1.52;55.55;91797.81;2071507;69;20196;-75
2023/01/20 00:12:43;;;;;;;;;;;;;;;-1.45;55.62;91794.31;2071600;69;20052;-75
2023/01/20 00:15:09;;;;;;;;;;;;;;;-1.53;55.16;91788.06;2071439;69;20175;-73
2023/01/20 00:17:35;;;;;;;;;;;;;;;-1.57;55.42;91793.94;2071540;69;20040;-74
2023/01/20 00:20:00;;;;;;;;;;;;;;;-1.49;55.26;91796.72;2071616;69;20423;-71
2023/01/20 00:22:26;;;;;;;;;;;;;;;-1.73;55.88;91805.56;2071699;69;20378;-71
2023/01/20 00:24:51;;;;;;;;;;;;;;;-1.76;56.75;91804.66;2071511;69;20044;-73
2023/01/20 00:27:16;;;;;;;;;;;;;;;-1.78;56.80;91798.22;2071517;69;20045;-73
2023/01/20 00:29:43;;;;;;;;;;;;;;;-1.76;57.15;91801.88;2071528;69;20076;-71
2023/01/20 00:32:09;;;;;;;;;;;;;;;-1.57;56.85;91795.97;2071605;69;20064;-72
2023/01/20 00:34:34;;;;;;;;;;;;;;;-1.50;56.51;91808.31;2071583;69;20071;-74
2023/01/20 00:37:00;;;;;;;;;;;;;;;-1.55;58.38;91802.44;2071635;69;20560;-73
2023/01/20 00:39:25;;;;;;;;;;;;;;;-1.48;57.58;91806.44;2071088;69;20828;-74
2023/01/20 00:41:51;;;;;;;;;;;;;;;-1.52;57.37;91808.84;2071494;69;20044;-73
2023/01/20 00:44:17;;;;;;;;;;;;;;;-1.55;57.74;91807.94;2071637;69;20040;-72
2023/01/20 00:46:43;;;;;;;;;;;;;;;-1.51;57.17;91807.56;2071623;69;20101;-72
2023/01/20 00:49:08;;;;;;;;;;;;;;;-1.42;57.00;91812.53;2071525;69;20067;-73
2023/01/20 00:51:34;;;;;;;;;;;;;;;-1.52;56.95;91811.59;2071692;69;20053;-72
2023/01/20 00:53:59;;;;;;;;;;;;;;;-1.63;58.46;91815.50;2071317;69;20044;-73
2023/01/20 00:56:25;;;;;;;;;;;;;;;-1.95;60.60;91821.56;2071572;69;20541;-73
2023/01/20 00:58:50;;;;;;;;;;;;;;;-2.05;61.36;91821.38;2071528;69;20044;-73
2023/01/20 01:01:15;;;;;;;;;;;;;;;-2.03;61.72;91825.63;2071483;69;20044;-75
2023/01/20 01:03:41;;;;;;;;;;;;;;;-1.84;60.44;91823.22;2071570;69;20049;-74
2023/01/20 01:06:11;;;;;;;;;;;;;;;-1.67;59.98;91819.91;2071597;69;20412;-74
2023/01/20 01:08:37;;;;;;;;;;;;;;;-1.62;59.63;91821.75;2071149;69;20049;-74
2023/01/20 01:11:03;;;;;;;;;;;;;;;-1.57;59.79;91829.09;2071596;69;20045;-74
2023/01/20 01:13:28;;;;;;;;;;;;;;;-1.55;59.26;91827.28;2071806;69;20164;-71
2023/01/20 01:15:54;;;;;;;;;;;;;;;-1.51;59.59;91834.41;2072198;69;20048;-75
2023/01/20 01:18:19;;;;;;;;;;;;;;;-1.56;59.09;91827.81;2072175;69;20036;-72
2023/01/20 01:20:45;;;;;;;;;;;;;;;-1.49;59.20;91837.38;2071475;69;20163;-74
2023/01/20 01:23:11;;;;;;;;;;;;;;;-1.50;58.70;91831.13;2071902;69;20051;-73
2023/01/20 01:25:36;;;;;;;;;;;;;;;-1.49;58.16;91842.91;2071695;69;20051;-70
2023/01/20 01:28:02;;;;;;;;;;;;;;;-1.69;58.67;91844.59;2071884;69;20048;-73
2023/01/20 01:30:27;;;;;;;;;;;;;;;-1.80;58.77;91848.44;2068662;69;20475;-73
2023/01/20 01:32:53;;;;;;;;;;;;;;;-1.93;60.34;91843.81;2071872;69;20076;-74
2023/01/20 01:35:18;;;;;;;;;;;;;;;-1.93;60.58;91857.59;2071434;69;20080;-73
2023/01/20 01:37:43;;;;;;;;;;;;;;;-1.83;60.42;91853.03;2071796;69;20136;-74
2023/01/20 01:40:09;;;;;;;;;;;;;;;-1.65;59.75;91850.44;2071716;69;20393;-73
2023/01/20 01:42:35;;;;;;;;;;;;;;;-1.81;60.54;91855.25;2071903;69;20041;-72
2023/01/20 01:45:06;;;;;;;;;;;;;;;-1.84;61.15;91857.06;2072003;69;20048;-73
2023/01/20 01:47:33;;;;;;;;;;;;;;;-1.77;60.35;91852.84;2071936;69;20041;-72
2023/01/20 01:49:58;;;;;;;;;;;;;;;-1.73;60.08;91855.97;2072038;69;20064;-71
2023/01/20 01:52:24;;;;;;;;;;;;;;;-1.78;59.73;91851.38;2071829;69;20048;-74
2023/01/20 01:54:50;;;;;;;;;;;;;;;-1.85;60.76;91847.31;2071890;69;20048;-74
2023/01/20 01:57:15;;;;;;;;;;;;;;;-2.23;63.09;91852.06;2068597;69;20041;-71
2023/01/20 01:59:42;;;;;;;;;;;;;;;-2.14;62.22;91844.00;2071657;69;20044;-72
2023/01/20 02:02:08;;;;;;;;;;;;;;;-2.05;61.72;91848.25;2071805;69;20044;-74
2023/01/20 02:04:34;;;;;;;;;;;;;;;-1.98;61.48;91850.25;2071941;69;20041;-74
2023/01/20 02:07:03;;;;;;;;;;;;;;;-1.99;61.09;91848.06;2071882;69;20256;-73
2023/01/20 02:09:29;;;;;;;;;;;;;;;-2.15;61.23;91852.81;2071798;69;20076;-74
2023/01/20 02:11:56;;;;;;;;;;;;;;;-2.14;61.44;91852.28;2071964;69;20047;-73
2023/01/20 02:14:28;;;;;;;;;;;;;;;-2.19;61.67;91850.44;2068529;69;20531;-73
2023/01/20 02:16:57;;;;;;;;;;;;;;;-2.24;61.53;91845.81;2071933;69;20113;-74
2023/01/20 02:19:23;;;;;;;;;;;;;;;-2.19;62.47;91852.44;2071823;69;20053;-74
2023/01/20 02:21:51;;;;;;;;;;;;;;;-2.17;61.18;91847.84;2071930;69;20130;-74
2023/01/20 02:24:28;;;;;;;;;;;;;;;-2.02;61.23;91857.41;2071594;69;20056;-74
2023/01/20 02:26:58;;;;;;;;;;;;;;;-2.07;61.00;91857.03;2068712;69;20118;-74
2023/01/20 02:29:33;;;;;;;;;;;;;;;-2.11;60.96;91861.44;2071975;69;20048;-74
2023/01/20 02:32:08;;;;;;;;;;;;;;;-2.09;61.19;91861.66;2071460;69;20041;-73
2023/01/20 02:34:36;;;;;;;;;;;;;;;-2.10;61.16;91862.94;2071875;69;20114;-73
2023/01/20 02:37:06;;;;;;;;;;;;;;;-2.18;60.31;91859.44;2071828;69;20051;-73
2023/01/20 02:39:41;;;;;;;;;;;;;;;-2.18;60.59;91856.69;2068475;69;20044;-73
2023/01/20 02:42:09;;;;;;;;;;;;;;;-2.22;60.38;91848.75;2071693;69;20056;-74
2023/01/20 02:45:05;;;;;;;;;;;;;;;-2.19;59.75;91858.69;2071812;69;20064;-73
2023/01/20 02:47:39;;;;;;;;;;;;;;;-2.21;60.21;91858.50;2057498;69;20045;-73
2023/01/20 02:50:23;;;;;;;;;;;;;;;-2.25;59.43;91858.13;2057514;69;20053;-72
2023/01/20 02:52:50;;;;;;;;;;;;;;;-2.28;60.43;91859.22;2057246;69;20163;-73
2023/01/20 02:55:37;;;;;;;;;;;;;;;-2.25;59.71;91860.13;2057408;69;20116;-72
2023/01/20 02:58:05;;;;;;;;;;;;;;;-2.32;59.32;91856.84;2054324;69;20461;-72
2023/01/20 03:00:36;;;;;;;;;;;;;;;-2.30;59.53;91868.03;2057623;69;20105;-73
2023/01/20 03:03:06;;;;;;;;;;;;;;;-2.32;60.30;91869.88;2057637;69;20172;-73
2023/01/20 03:05:34;;;;;;;;;;;;;;;-2.34;59.96;91877.94;2057632;69;20038;-73
2023/01/20 03:08:02;;;;;;;;;;;;;;;-2.37;59.73;91885.31;2054816;69;20073;-73
2023/01/20 03:10:31;;;;;;;;;;;;;;;-2.34;59.52;91880.72;2057083;69;20042;-72
2023/01/20 03:12:59;;;;;;;;;;;;;;;-2.34;60.32;91878.72;2057553;69;20046;-71
2023/01/20 03:15:31;;;;;;;;;;;;;;;-2.42;60.65;91886.22;2054836;69;20064;-73
2023/01/20 03:17:56;;;;;;;;;;;;;;;-2.24;60.58;91889.22;2057560;69;20045;-73
2023/01/20 03:20:22;;;;;;;;;;;;;;;-2.28;59.91;91886.81;2057525;69;20057;-74
2023/01/20 03:22:49;;;;;;;;;;;;;;;-2.43;60.03;91893.03;2058299;69;20057;-72
2023/01/20 03:25:15;;;;;;;;;;;;;;;-2.40;60.32;91893.94;2071614;69;20139;-74
2023/01/20 03:27:41;;;;;;;;;;;;;;;-2.34;60.06;91900.75;2071782;69;20057;-73
2023/01/20 03:30:14;;;;;;;;;;;;;;;-2.27;60.24;91899.31;2071835;69;20068;-73
2023/01/20 03:32:40;;;;;;;;;;;;;;;-2.24;60.66;91900.25;2071782;69;20181;-74
2023/01/20 03:35:06;;;;;;;;;;;;;;;-2.18;60.85;91907.03;2071731;69;20055;-72
2023/01/20 03:37:31;;;;;;;;;;;;;;;-2.12;60.77;91901.34;2071560;69;20040;-73
2023/01/20 03:39:57;;;;;;;;;;;;;;;-2.17;61.10;91897.47;2071629;69;20478;-74
2023/01/20 03:42:22;;;;;;;;;;;;;;;-2.28;61.55;91899.84;2071778;69;20563;-74
2023/01/20 03:44:51;;;;;;;;;;;;;;;-2.22;61.08;91909.41;2071705;69;20072;-73
2023/01/20 03:47:23;;;;;;;;;;;;;;;-2.15;60.54;91908.72;2071751;69;20044;-73
2023/01/20 03:49:54;;;;;;;;;;;;;;;-2.09;60.38;91900.25;2071764;69;20140;-74
2023/01/20 03:52:27;;;;;;;;;;;;;;;-2.11;60.73;91906.34;2068444;69;20053;-72
2023/01/20 03:54:59;;;;;;;;;;;;;;;-2.05;61.55;91914.44;2071395;69;20055;-72
2023/01/20 03:57:28;;;;;;;;;;;;;;;-2.03;60.82;91914.59;2071666;69;20056;-71
2023/01/20 03:59:54;;;;;;;;;;;;;;;-2.07;60.88;91917.72;2071831;69;20137;-72
2023/01/20 04:02:21;;;;;;;;;;;;;;;-2.04;60.27;91926.94;2071660;69;20074;-73
2023/01/20 04:04:47;;;;;;;;;;;;;;;-1.99;60.63;91917.75;2071797;69;20040;-71
2023/01/20 04:07:18;;;;;;;;;;;;;;;-2.18;61.00;91920.84;2071612;69;20048;-71
2023/01/20 04:09:46;;;;;;;;;;;;;;;-2.33;62.49;91924.28;2071743;69;20041;-71
2023/01/20 04:12:12;;;;;;;;;;;;;;;-2.11;62.09;91925.63;2071762;69;20041;-73
2023/01/20 04:14:37;;;;;;;;;;;;;;;-1.98;61.51;91926.75;2071693;69;20136;-73
2023/01/20 04:17:03;;;;;;;;;;;;;;;-2.07;61.86;91926.00;2068424;69;20136;-71
2023/01/20 04:19:29;;;;;;;;;;;;;;;-1.99;61.42;91928.03;2071508;69;20079;-71
2023/01/20 04:22:06;;;;;;;;;;;;;;;-1.96;61.02;91938.00;2071642;69;20051;-72
2023/01/20 04:24:36;;;;;;;;;;;;;;;-2.01;61.01;91931.38;2071513;69;20045;-71
2023/01/20 04:27:02;;;;;;;;;;;;;;;-2.02;60.85;91927.09;2068209;69;20044;-71
2023/01/20 04:29:27;;;;;;;;;;;;;;;-1.97;60.00;91937.25;2071384;69;20052;-72
2023/01/20 04:31:59;;;;;;;;;;;;;;;-1.97;59.88;91936.50;2071453;69;20075;-72
2023/01/20 04:34:25;;;;;;;;;;;;;;;-2.08;60.17;91940.34;2071574;69;20049;-75
2023/01/20 04:36:50;;;;;;;;;;;;;;;-2.00;59.36;91943.84;2071650;69;20412;-74
2023/01/20 04:39:16;;;;;;;;;;;;;;;-2.01;59.52;91939.63;2071440;69;20170;-73
2023/01/20 04:41:41;;;;;;;;;;;;;;;-1.96;59.20;91947.00;2071596;69;20507;-73
2023/01/20 04:44:07;;;;;;;;;;;;;;;-2.11;60.02;91949.69;2071523;69;20048;-74
2023/01/20 04:46:32;;;;;;;;;;;;;;;-2.11;59.77;91949.69;2072029;69;20429;-74
2023/01/20 04:48:58;;;;;;;;;;;;;;;-2.07;59.24;91956.34;2072005;69;20051;-74
2023/01/20 04:51:23;;;;;;;;;;;;;;;-2.27;60.00;91959.97;2071993;69;20146;-74
2023/01/20 04:53:48;;;;;;;;;;;;;;;-2.13;59.60;91955.78;2071881;69;20127;-75
2023/01/20 04:56:14;;;;;;;;;;;;;;;-2.13;60.25;91964.03;2068579;69;20420;-73
2023/01/20 04:58:40;;;;;;;;;;;;;;;-2.38;60.62;91965.81;2071972;69;20047;-74
2023/01/20 05:01:06;;;;;;;;;;;;;;;-2.27;60.85;91970.97;2071923;69;20049;-73
2023/01/20 05:03:33;;;;;;;;;;;;;;;-2.21;61.10;91970.81;2071882;69;20488;-73
2023/01/20 05:05:58;;;;;;;;;;;;;;;-2.08;60.27;91976.94;2071917;69;20118;-73
2023/01/20 05:08:23;;;;;;;;;;;;;;;-2.05;60.12;91983.38;2071782;69;20052;-72
2023/01/20 05:10:49;;;;;;;;;;;;;;;-2.06;60.69;91982.66;2071832;69;20136;-74
2023/01/20 05:13:14;;;;;;;;;;;;;;;-2.03;60.59;91991.09;2072102;69;20084;-74
2023/01/20 05:15:41;;;;;;;;;;;;;;;-2.05;60.53;91992.41;2068527;69;20096;-75
2023/01/20 05:18:06;;;;;;;;;;;;;;;-2.25;61.00;91998.75;2071984;69;20048;-74
2023/01/20 05:20:32;;;;;;;;;;;;;;;-2.20;61.84;92006.13;2071944;69;20049;-75
2023/01/20 05:22:57;;;;;;;;;;;;;;;-2.03;61.70;92004.91;2068612;69;20524;-74
2023/01/20 05:25:23;;;;;;;;;;;;;;;-2.05;61.93;92008.22;2071774;69;20052;-73
2023/01/20 05:27:48;;;;;;;;;;;;;;;-2.06;61.90;92017.78;2071930;69;20064;-72
2023/01/20 05:30:14;;;;;;;;;;;;;;;-2.08;62.00;92012.78;2072323;69;20040;-75
2023/01/20 05:32:39;;;;;;;;;;;;;;;-2.13;62.38;92013.69;2071869;69;20052;-73
2023/01/20 05:35:05;;;;;;;;;;;;;;;-2.27;62.81;92019.88;2071822;69;20036;-73
2023/01/20 05:37:30;;;;;;;;;;;;;;;-2.06;62.21;92024.03;2071831;69;20480;-75
2023/01/20 05:39:56;;;;;;;;;;;;;;;-2.21;62.66;92014.94;2071747;69;20424;-72
2023/01/20 05:42:21;;;;;;;;;;;;;;;-2.34;62.89;92021.31;2072078;69;20489;-72
2023/01/20 05:44:47;;;;;;;;;;;;;;;-2.10;62.25;92022.91;2071945;69;20460;-73
2023/01/20 05:47:12;;;;;;;;;;;;;;;-2.02;62.09;92025.66;2071990;69;20045;-75
2023/01/20 05:49:38;;;;;;;;;;;;;;;-2.23;62.57;92026.50;2072086;69;20445;-72
2023/01/20 05:52:03;;;;;;;;;;;;;;;-2.20;62.86;92033.72;2071979;69;20465;-73
2023/01/20 05:54:29;;;;;;;;;;;;;;;-2.16;62.56;92030.56;2071797;69;20575;-74
2023/01/20 05:56:54;;;;;;;;;;;;;;;-2.41;63.34;92036.53;2071845;69;20049;-74
2023/01/20 05:59:19;;;;;;;;;;;;;;;-2.34;63.22;92038.59;2071837;69;20519;-72
2023/01/20 06:01:45;;;;;;;;;;;;;;;-2.20;62.55;92044.75;2071945;69;20550;-75
2023/01/20 06:04:12;;;;;;;;;;;;;;;-2.11;62.01;92046.22;2068556;69;20048;-74
2023/01/20 06:06:37;;;;;;;;;;;;;;;-2.06;61.95;92046.09;2071964;69;20044;-75
2023/01/20 06:09:02;;;;;;;;;;;;;;;-2.06;62.11;92050.88;2071786;69;20749;-75
2023/01/20 06:11:28;;;;;;;;;;;;;;;-2.00;62.36;92050.69;2071882;69;20089;-75
2023/01/20 06:13:53;;;;;;;;;;;;;;;-2.08;63.12;92045.16;2071969;69;20033;-75
2023/01/20 06:16:19;;;;;;;;;;;;;;;-2.10;63.03;92056.72;2071859;69;20068;-75
2023/01/20 06:18:45;;;;;;;;;;;;;;;-2.02;62.92;92051.22;2072000;69;20040;-73
2023/01/20 06:21:10;;;;;;;;;;;;;;;-1.99;62.15;92055.66;2071837;69;20041;-73
2023/01/20 06:23:36;;;;;;;;;;;;;;;-1.98;61.73;92056.41;2072132;69;20192;-73
2023/01/20 06:26:03;;;;;;;;;;;;;;;-1.92;61.74;92062.50;2072120;69;20048;-74
2023/01/20 06:28:29;;;;;;;;;;;;;;;-1.97;61.91;92061.38;2068541;69;20158;-73
2023/01/20 06:30:58;;;;;;;;;;;;;;;-1.98;61.98;92067.44;2071857;69;20053;-75
2023/01/20 06:33:24;;;;;;;;;;;;;;;-1.97;62.05;92060.63;2071797;69;20053;-75
2023/01/20 06:35:54;;;;;;;;;;;;;;;-2.05;62.51;92068.88;2071974;69;20135;-73
2023/01/20 06:38:21;;;;;;;;;;;;;;;-2.37;64.07;92072.03;2071814;69;20041;-74
2023/01/20 06:40:46;;;;;;;;;;;;;;;-2.51;63.66;92068.63;2071909;69;20053;-73
2023/01/20 06:43:12;;;;;;;;;;;;;;;-2.63;65.15;92084.72;2071997;69;20393;-75
2023/01/20 06:45:37;;;;;;;;;;;;;;;-2.42;64.55;92081.19;2071844;69;20087;-75
2023/01/20 06:48:03;;;;;;;;;;;;;;;-2.28;64.00;92079.06;2068664;69;20053;-75
2023/01/20 06:50:28;;;;;;;;;;;;;;;-2.19;63.37;92082.06;2068528;69;20470;-74
2023/01/20 06:52:54;;;;;;;;;;;;;;;-2.25;62.56;92086.97;2068778;69;20047;-74
2023/01/20 06:55:20;;;;;;;;;;;;;;;-2.34;62.48;92091.00;2071733;69;20056;-74
2023/01/20 06:57:45;;;;;;;;;;;;;;;-2.42;63.73;92095.72;2071818;69;20051;-75
2023/01/20 07:00:11;;;;;;;;;;;;;;;-2.27;63.42;92099.84;2071847;69;20044;-75
2023/01/20 07:02:36;;;;;;;;;;;;;;;-2.31;63.67;92092.63;2068234;69;20412;-75
2023/01/20 07:05:03;;;;;;;;;;;;;;;-2.19;63.55;92100.63;2071705;69;20164;-72
2023/01/20 07:07:28;;;;;;;;;;;;;;;-2.19;63.32;92109.63;2071836;69;20044;-74
2023/01/20 07:09:54;;;;;;;;;;;;;;;-2.40;63.71;92112.44;2071668;69;20067;-75
2023/01/20 07:12:19;;;;;;;;;;;;;;;-2.22;63.61;92110.72;2071694;69;20167;-74
2023/01/20 07:14:45;;;;;;;;;;;;;;;-2.18;63.31;92122.13;2071606;69;20147;-75
2023/01/20 07:17:11;;;;;;;;;;;;;;;-2.16;63.32;92122.31;2071818;69;20080;-76
2023/01/20 07:19:36;;;;;;;;;;;;;;;-2.09;62.98;92129.91;2068323;69;20057;-72
2023/01/20 07:22:02;;;;;;;;;;;;;;;-2.17;63.99;92125.63;2071789;69;20040;-74
2023/01/20 07:24:27;;;;;;;;;;;;;;;-2.51;64.92;92128.53;2071541;69;20044;-74
2023/01/20 07:26:53;;;;;;;;;;;;;;;-2.17;64.20;92131.16;2071678;69;20052;-73
2023/01/20 07:29:18;;;;;;;;;;;;;;;-2.03;63.55;92132.50;2071767;69;20064;-74
2023/01/20 07:31:44;;;;;;;;;;;;;;;-1.93;62.69;92139.00;2071721;69;20139;-72
2023/01/20 07:34:09;;;;;;;;;;;;;;;-1.88;63.17;92146.41;2071733;69;20477;-74
2023/01/20 07:36:35;;;;;;;;;;;;;;;-1.81;62.79;92148.44;2071741;69;20041;-73
2023/01/20 07:39:00;;;;;;;;;;;;;;;-1.80;63.16;92154.69;2071645;69;20179;-75
2023/01/20 07:41:26;;;;;;;;;;;;;;;-1.75;63.00;92158.59;2071808;69;20098;-75
2023/01/20 07:43:52;;;;;;;;;;;;;;;-1.76;62.57;92157.84;2071782;69;20171;-75
2023/01/20 07:46:17;;;;;;;;;;;;;;;-1.75;62.66;92167.59;2071695;69;20080;-74
2023/01/20 07:48:43;;;;;;;;;;;;;;;-1.77;62.65;92166.69;2071648;69;20040;-73
2023/01/20 07:51:10;;;;;;;;;;;;;;;-1.68;62.02;92168.94;2071582;69;20061;-73
2023/01/20 07:53:37;;;;;;;;;;;;;;;-1.82;62.62;92165.56;2071518;69;20049;-73
2023/01/20 07:56:04;;;;;;;;;;;;;;;-1.75;62.48;92172.38;2071692;69;20056;-73
2023/01/20 07:58:30;;;;;;;;;;;;;;;-2.06;62.91;92177.75;2071632;69;20080;-75
2023/01/20 08:00:55;;;;;;;;;;;;;;;-1.96;62.43;92167.69;2071638;69;20045;-76
2023/01/20 08:03:21;;;;;;;;;;;;;;;-1.95;62.11;92182.94;2071546;69;20051;-75
2023/01/20 08:05:47;;;;;;;;;;;;;;;-1.75;61.79;92177.91;2071615;69;20393;-75
2023/01/20 08:08:12;;;;;;;;;;;;;;;-1.56;61.57;92187.41;2071572;69;20088;-73
2023/01/20 08:10:38;;;;;;;;;;;;;;;-1.49;60.69;92187.97;2071529;69;20380;-71
2023/01/20 08:13:03;;;;;;;;;;;;;;;-1.47;60.57;92191.66;2071774;69;20056;-74
2023/01/20 08:15:29;;;;;;;;;;;;;;;-1.54;60.49;92201.38;2071568;69;20060;-75
2023/01/20 08:17:54;;;;;;;;;;;;;;;-1.38;60.14;92195.94;2071866;69;20049;-72
2023/01/20 08:20:20;;;;;;;;;;;;;;;-1.25;60.67;92200.59;2071433;69;20048;-73
2023/01/20 08:22:46;;;;;;;;;;;;;;;-1.14;60.51;92203.03;2071985;69;20051;-76
2023/01/20 08:25:12;;;;;;;;;;;;;;;-1.21;60.06;92203.75;2072040;69;20493;-74
2023/01/20 08:27:38;;;;;;;;;;;;;;;-1.12;59.95;92205.97;2068906;69;20057;-73
2023/01/20 08:30:03;;;;;;;;;;;;;;;-1.12;59.19;92209.47;2072120;69;20557;-76
2023/01/20 08:32:29;;;;;;;;;;;;;;;-1.08;59.66;92211.88;2071931;69;20072;-72
2023/01/20 08:34:55;;;;;;;;;;;;;;;-1.06;58.83;92209.31;2068682;69;20118;-74
2023/01/20 08:37:20;;;;;;;;;;;;;;;-0.91;58.70;92211.41;2072112;69;20459;-76
2023/01/20 08:39:46;;;;;;;;;;;;;;;-0.80;58.03;92222.84;2068509;69;20047;-75
2023/01/20 08:42:11;;;;;;;;;;;;;;;-0.79;57.34;92224.31;2071930;69;20139;-75
2023/01/20 08:44:37;;;;;;;;;;;;;;;-0.71;56.82;92229.13;2072184;69;20075;-73
2023/01/20 08:47:02;;;;;;;;;;;;;;;-0.67;56.35;92227.47;2071991;69;20048;-75
2023/01/20 08:49:28;;;;;;;;;;;;;;;-0.62;56.10;92225.84;2072102;69;20091;-75
2023/01/20 08:51:55;;;;;;;;;;;;;;;-0.56;55.77;92229.88;2072020;69;20143;-71
2023/01/20 08:54:21;;;;;;;;;;;;;;;-0.71;55.80;92245.72;2071893;69;20056;-72
2023/01/20 08:56:49;;;;;;;;;;;;;;;-0.63;55.28;92238.91;2071977;69;20114;-73
2023/01/20 08:59:14;;;;;;;;;;;;;;;-0.47;54.22;92241.72;2068628;69;20139;-71
2023/01/20 09:01:40;;;;;;;;;;;;;;;-0.64;54.32;92236.69;2072036;69;20180;-72
2023/01/20 09:04:06;;;;;;;;;;;;;;;-0.26;54.89;92242.28;2071935;69;20056;-72
2023/01/20 09:06:51;;;;;;;;;;;;;;;-0.17;54.13;92243.78;2072096;69;20040;-72
2023/01/20 09:09:18;;;;;;;;;;;;;;;-0.02;53.21;92249.31;2071951;69;20037;-72
2023/01/20 09:11:49;;;;;;;;;;;;;;;-0.08;51.18;92251.53;2071991;69;20060;-74
2023/01/20 09:14:14;;;;;;;;;;;;;;;0.04;49.33;92257.44;2072132;69;20040;-75
2023/01/20 09:16:40;;;;;;;;;;;;;;;-0.25;47.24;92257.59;2072104;69;20037;-75
2023/01/20 09:19:05;;;;;;;;;;;;;;;-0.49;51.36;92261.63;2072025;69;20051;-72
2023/01/20 09:21:31;;;;;;;;;;;;;;;-0.62;49.24;92262.50;2071982;69;20158;-75
2023/01/20 09:23:56;;;;;;;;;;;;;;;-0.41;50.89;92267.16;2072036;69;20047;-70
2023/01/20 09:26:22;;;;;;;;;;;;;;;-0.86;49.04;92269.25;2068525;69;20040;-75
2023/01/20 09:28:47;;;;;;;;;;;;;;;-1.14;50.07;92274.88;2071971;69;20041;-72
2023/01/20 09:31:12;;;;;;;;;;;;;;;-0.93;47.64;92269.22;2071911;69;20052;-75
2023/01/20 09:33:39;;;;;;;;;;;;;;;-0.70;47.59;92277.59;2071874;69;20040;-75
2023/01/20 09:36:06;;;;;;;;;;;;;;;-0.25;46.46;92274.19;2068548;69;20052;-75
2023/01/20 09:44:10;;;;;;;;;;;;;;;0.28;45.63;92283.84;2072162;69;20485;-75
2023/01/20 09:46:45;;;;;;;;;;;;;;;0.24;45.22;92279.41;2072004;69;20087;-74
2023/01/20 09:55:08;;;;;;;;;;;;;;;-0.42;47.69;92285.78;2071841;69;20044;-71
2023/01/20 09:57:36;;;;;;;;;;;;;;;-0.10;47.77;92285.28;2071960;69;20041;-73
2023/01/20 10:00:08;;;;;;;;;;;;;;;0.14;47.24;92281.25;2071894;69;20052;-73
2023/01/20 10:02:34;;;;;;;;;;;;;;;0.59;46.41;92285.25;2071834;69;20552;-71
2023/01/20 10:05:10;;;;;;;;;;;;;;;0.53;46.93;92286.75;2071813;69;20076;-74
2023/01/20 10:07:57;;;;;;;;;;;;;;;0.36;47.06;92288.03;2071858;69;20505;-74
2023/01/20 10:10:31;;;;;;;;;;;;;;;0.47;46.76;92293.22;2071683;69;20413;-73
2023/01/20 10:13:17;;;;;;;;;;;;;;;0.28;46.33;92289.38;2071916;69;20166;-74
2023/01/20 10:15:47;;;;;;;;;;;;;;;0.87;46.28;92292.63;2071689;69;20052;-72
2023/01/20 10:18:16;;;;;;;;;;;;;;;0.96;46.55;92294.81;2071715;69;20132;-74
2023/01/20 10:20:57;;;;;;;;;;;;;;;1.24;46.03;92299.34;2071833;69;20044;-72
2023/01/20 10:23:25;;;;;;;;;;;;;;;1.07;45.36;92290.88;2071857;69;20173;-75
2023/01/20 10:25:53;;;;;;;;;;;;;;;0.68;45.50;92295.75;2071953;69;20523;-75
2023/01/20 10:28:29;;;;;;;;;;;;;;;1.38;45.64;92293.56;2072096;69;20056;-76
2023/01/20 10:30:56;;;;;;;;;;;;;;;1.46;46.15;92299.78;2071901;69;20083;-76
2023/01/20 10:33:27;;;;;;;;;;;;;;;1.74;44.61;92298.72;2071790;69;20045;-73
2023/01/20 10:35:54;;;;;;;;;;;;;;;0.64;45.06;92298.19;2068623;69;20088;-72
2023/01/20 10:38:25;;;;;;;;;;;;;;;0.82;45.05;92301.84;2071785;69;20075;-72
2023/01/20 10:40:54;;;;;;;;;;;;;;;1.44;44.85;92299.63;2071817;69;20055;-72
2023/01/20 10:43:19;;;;;;;;;;;;;;;0.77;45.68;92297.22;2071811;69;20550;-73
2023/01/20 10:45:58;;;;;;;;;;;;;;;0.82;45.82;92296.28;2071911;69;20465;-73
2023/01/20 10:48:27;;;;;;;;;;;;;;;1.49;45.12;92299.41;2071857;69;20044;-73
2023/01/20 10:51:05;;;;;;;;;;;;;;;1.77;45.18;92294.81;2071781;69;20041;-74
2023/01/20 10:53:40;;;;;;;;;;;;;;;0.55;45.30;92287.69;2071671;69;20060;-70
2023/01/20 10:56:15;;;;;;;;;;;;;;;1.04;45.91;92292.00;2071941;69;20044;-73
2023/01/20 10:58:44;;;;;;;;;;;;;;;1.02;44.77;92289.78;2071957;69;20072;-71
2023/01/20 11:01:12;;;;;;;;;;;;;;;1.38;45.18;92296.34;2071890;69;20045;-74
2023/01/20 11:03:42;;;;;;;;;;;;;;;1.65;45.10;92296.56;2071855;69;20041;-72
2023/01/20 11:06:16;;;;;;;;;;;;;;;1.40;44.25;92293.72;2071918;69;20051;-72
2023/01/20 11:08:41;;;;;;;;;;;;;;;1.25;43.94;92288.97;2071565;69;20179;-74
2023/01/20 11:11:11;;;;;;;;;;;;;;;0.86;44.48;92290.38;2071798;69;20041;-73
2023/01/20 11:13:37;;;;;;;;;;;;;;;1.17;44.88;92291.78;2071825;69;20045;-71
2023/01/20 11:16:09;;;;;;;;;;;;;;;1.92;44.30;92291.22;2068497;69;20048;-73
2023/01/20 11:18:34;;;;;;;;;;;;;;;1.71;44.56;92297.81;2071933;69;20048;-74
2023/01/20 11:21:04;;;;;;;;;;;;;;;1.71;43.37;92292.28;2071863;69;20045;-73
2023/01/20 11:23:46;;;;;;;;;;;;;;;2.14;43.74;92292.38;2071831;69;20221;-73
2023/01/20 11:26:18;;;;;;;;;;;;;;;2.28;43.09;92296.34;2071761;69;20517;-72
2023/01/20 11:28:54;;;;;;;;;;;;;;;2.02;42.60;92292.84;2071698;69;20484;-77
2023/01/20 11:31:21;;;;;;;;;;;;;;;2.07;42.82;92293.91;2071640;69;20072;-75
2023/01/20 11:33:57;;;;;;;;;;;;;;;2.49;42.95;92291.19;2071603;69;20037;-77
2023/01/20 11:36:25;;;;;;;;;;;;;;;2.18;42.40;92290.69;2071712;69;20040;-75
2023/01/20 11:38:51;;;;;;;;;;;;;;;2.09;41.57;92291.28;2071617;69;20480;-74
2023/01/20 11:41:27;;;;;;;;;;;;;;;2.59;42.17;92288.50;2071721;69;20048;-73
2023/01/20 11:43:57;;;;;;;;;;;;;;;3.14;42.16;92276.28;2071695;69;20075;-74
2023/01/20 11:46:27;;;;;;;;;;;;;;;3.30;41.79;92285.94;2071675;69;20102;-70
2023/01/20 11:49:11;;;;;;;;;;;;;;;3.43;41.05;92290.41;2071651;69;20110;-70
2023/01/20 11:52:03;;;;;;;;;;;;;;;3.39;40.74;92281.75;2071829;69;20135;-72
2023/01/20 11:54:29;;;;;;;;;;;;;;;3.44;39.97;92283.56;2070549;69;20059;-73
2023/01/20 11:56:58;;;;;;;;;;;;;;;2.80;40.27;92277.75;2071609;69;20048;-73
2023/01/20 11:59:28;;;;;;;;;;;;;;;2.69;41.22;92281.00;2068404;69;20080;-73
2023/01/20 12:02:00;;;;;;;;;;;;;;;3.17;41.45;92279.97;2068288;69;20037;-71
2023/01/20 12:04:31;;;;;;;;;;;;;;;2.77;40.84;92278.88;2071674;69;20051;-75
2023/01/20 12:07:09;;;;;;;;;;;;;;;3.02;41.19;92281.63;2068149;69;20148;-74
2023/01/20 12:09:37;;;;;;;;;;;;;;;2.81;41.35;92281.25;2071428;69;20105;-71
2023/01/20 12:12:02;;;;;;;;;;;;;;;3.22;41.30;92279.00;2071567;69;20068;-71
2023/01/20 12:14:32;;;;;;;;;;;;;;;2.47;42.32;92277.09;2071639;69;20048;-71
2023/01/20 12:17:03;;;;;;;;;;;;;;;3.08;40.94;92275.06;2071530;69;20044;-73
2023/01/20 12:19:33;;;;;;;;;;;;;;;2.37;41.44;92275.53;2071525;69;20048;-75
2023/01/20 12:22:02;;;;;;;;;;;;;;;3.12;41.61;92272.63;2071479;69;20045;-71
2023/01/20 12:25:06;;;;;;;;;;;;;;;3.42;41.70;92274.28;2071456;69;20048;-71
2023/01/20 12:27:32;;;;;;;;;;;;;;;3.17;40.71;92274.41;2071636;69;20547;-73
2023/01/20 12:30:01;;;;;;;;;;;;;;;3.68;41.30;92268.03;2071579;69;20053;-71
2023/01/20 12:32:28;;;;;;;;;;;;;;;3.54;39.84;92276.00;2071492;69;20114;-75
2023/01/20 12:34:53;;;;;;;;;;;;;;;2.79;41.02;92273.50;2068186;69;20048;-76
2023/01/20 12:37:26;;;;;;;;;;;;;;;3.26;40.88;92266.13;2071454;69;20047;-75
2023/01/20 12:39:58;;;;;;;;;;;;;;;2.69;41.47;92271.91;2071302;69;20052;-73
2023/01/20 12:42:39;;;;;;;;;;;;;;;2.90;40.88;92274.31;2071602;69;20049;-74
2023/01/20 12:45:26;;;;;;;;;;;;;;;3.02;40.43;92267.72;2071559;69;20076;-72
2023/01/20 12:48:04;;;;;;;;;;;;;;;1.82;41.10;92268.88;2071572;69;20055;-76
2023/01/20 12:50:48;;;;;;;;;;;;;;;2.48;41.29;92269.53;2071552;69;20040;-74
2023/01/20 12:53:26;;;;;;;;;;;;;;;2.10;40.92;92265.00;2071457;69;20052;-76
2023/01/20 12:56:11;;;;;;;;;;;;;;;1.69;41.99;92272.66;2071689;69;20048;-72
2023/01/20 12:58:42;;;;;;;;;;;;;;;1.12;42.28;92278.84;2064177;69;20158;-74
2023/01/20 13:01:41;;;;;;;;;;;;;;;1.45;42.06;92274.09;2071396;69;20113;-73
2023/01/20 13:04:15;;;;;;;;;;;;;;;1.85;41.71;92278.13;2063753;69;20055;-73
2023/01/20 13:06:56;;;;;;;;;;;;;;;1.91;41.27;92273.09;2071555;69;20044;-72